Time;durP1;ratioP1;P1;durP2;ratioP2;P2;SDS_P1;SDS_P2;PMS_P1;PMS_P2;Temp;Humidity;BMP_temperature;BMP_pressure;BME280_temperature;BME280_humidity;BME280_pressure;Samples;Min_cycle;Max_cycle;Signal;HPM_P1;HPM_P2
2021/12/06 00:01:30;;;;;;;29.98;21.45;;;5.40;99.90;;;;;;5068412;28;20099;-42
2021/12/06 00:04:06;;;;;;;30.67;21.88;;;5.40;99.90;;;;;;5068136;28;20017;-43
2021/12/06 00:06:34;;;;;;;32.35;23.90;;;5.40;99.90;;;;;;5058340;28;20028;-43
2021/12/06 00:09:02;;;;;;;30.55;21.83;;;5.40;99.90;;;;;;5068345;28;20031;-42
2021/12/06 00:11:28;;;;;;;28.77;21.83;;;5.30;99.90;;;;;;5067859;28;20028;-43
2021/12/06 00:13:54;;;;;;;35.58;24.45;;;5.30;99.90;;;;;;5068127;28;20113;-42
2021/12/06 00:16:22;;;;;;;30.75;21.95;;;5.30;99.90;;;;;;5068182;28;20067;-43
2021/12/06 00:18:49;;;;;;;34.55;24.25;;;5.30;99.90;;;;;;5067445;28;20485;-43
2021/12/06 00:21:15;;;;;;;31.42;23.98;;;5.30;99.90;;;;;;5067864;28;20043;-42
2021/12/06 00:23:41;;;;;;;33.65;24.85;;;5.20;99.90;;;;;;5068098;28;20833;-42
2021/12/06 00:26:08;;;;;;;34.38;24.83;;;5.20;99.90;;;;;;5067213;28;20396;-44
2021/12/06 00:28:34;;;;;;;33.10;24.17;;;5.20;99.90;;;;;;5067902;28;20033;-43
2021/12/06 00:30:59;;;;;;;34.35;23.23;;;5.20;99.90;;;;;;5067885;28;20532;-43
2021/12/06 00:33:26;;;;;;;37.40;23.35;;;5.20;99.90;;;;;;5066425;28;20044;-43
2021/12/06 00:35:54;;;;;;;29.88;22.50;;;5.10;99.90;;;;;;5067699;28;20583;-43
2021/12/06 00:38:20;;;;;;;32.78;23.92;;;5.20;99.90;;;;;;5068485;28;20036;-42
2021/12/06 00:40:47;;;;;;;35.92;24.50;;;5.20;99.90;;;;;;5067063;28;20012;-43
2021/12/06 00:43:14;;;;;;;38.88;26.45;;;5.20;99.90;;;;;;5067603;28;20024;-45
2021/12/06 00:45:40;;;;;;;33.30;24.20;;;5.20;99.90;;;;;;5067790;28;20075;-43
2021/12/06 00:48:06;;;;;;;37.92;25.13;;;5.20;99.90;;;;;;5066666;28;20451;-43
2021/12/06 00:50:34;;;;;;;36.08;23.83;;;5.20;99.90;;;;;;5067043;28;20036;-42
2021/12/06 00:53:00;;;;;;;33.45;22.98;;;5.20;99.90;;;;;;5056478;28;20025;-43
2021/12/06 00:55:26;;;;;;;31.77;23.05;;;5.30;99.90;;;;;;5066906;28;20048;-43
2021/12/06 00:57:53;;;;;;;30.55;22.08;;;5.30;99.90;;;;;;5067376;28;20180;-43
2021/12/06 01:00:22;;;;;;;32.83;23.23;;;5.30;99.90;;;;;;5067161;28;20024;-43
2021/12/06 01:02:47;;;;;;;37.47;25.08;;;5.30;99.90;;;;;;5067180;28;20024;-43
2021/12/06 01:05:13;;;;;;;38.35;25.35;;;5.30;99.90;;;;;;5067985;28;20063;-43
2021/12/06 01:07:39;;;;;;;32.97;22.38;;;5.30;99.90;;;;;;5066003;28;20032;-42
2021/12/06 01:10:07;;;;;;;33.05;23.35;;;5.30;99.90;;;;;;5067625;28;20064;-43
2021/12/06 01:12:32;;;;;;;37.42;24.85;;;5.30;99.90;;;;;;5067124;28;20025;-44
2021/12/06 01:14:58;;;;;;;36.70;25.77;;;5.30;99.90;;;;;;5066376;28;20487;-44
2021/12/06 01:17:27;;;;;;;37.60;24.75;;;5.30;99.90;;;;;;5067326;28;20020;-44
2021/12/06 01:19:53;;;;;;;36.42;23.05;;;5.30;99.90;;;;;;5066764;28;20119;-44
2021/12/06 01:22:30;;;;;;;31.95;22.63;;;5.30;99.90;;;;;;5066295;28;20048;-44
2021/12/06 01:25:04;;;;;;;34.95;22.83;;;5.40;99.90;;;;;;5067290;28;20025;-43
2021/12/06 01:40:32;;;;;;;40.70;24.35;;;5.50;99.90;;;;;;5057574;28;20037;-43
2021/12/06 01:43:02;;;;;;;40.78;25.80;;;5.50;99.90;;;;;;5065708;28;20016;-33
2021/12/06 01:45:28;;;;;;;36.67;25.20;;;5.50;99.90;;;;;;5067571;28;20032;-32
2021/12/06 01:47:53;;;;;;;40.72;25.08;;;5.40;99.90;;;;;;5067008;28;20506;-33
2021/12/06 01:50:23;;;;;;;40.60;24.08;;;5.40;99.90;;;;;;5066388;28;20578;-32
2021/12/06 01:52:53;;;;;;;36.00;23.15;;;5.50;99.90;;;;;;5066886;28;20017;-33
2021/12/06 01:55:23;;;;;;;39.88;24.10;;;5.50;99.90;;;;;;5066836;28;20036;-35
2021/12/06 01:57:49;;;;;;;41.05;25.88;;;5.50;99.90;;;;;;5065941;28;20042;-32
2021/12/06 02:00:24;;;;;;;41.33;25.05;;;5.50;99.90;;;;;;5065494;28;20033;-32
2021/12/06 02:02:49;;;;;;;42.55;27.17;;;5.50;99.90;;;;;;5066648;28;20025;-32
2021/12/06 02:05:16;;;;;;;42.83;26.15;;;5.50;99.90;;;;;;5065800;28;20054;-33
2021/12/06 02:07:42;;;;;;;53.03;28.42;;;5.50;99.90;;;;;;5066422;28;20074;-32
2021/12/06 02:10:09;;;;;;;47.97;26.92;;;5.50;99.90;;;;;;5066267;28;20090;-33
2021/12/06 02:12:35;;;;;;;45.90;26.90;;;5.50;99.90;;;;;;5066444;28;20434;-33
2021/12/06 02:15:28;;;;;;;42.15;24.92;;;5.50;99.90;;;;;;5066099;28;20529;-33
2021/12/06 02:18:05;;;;;;;42.17;24.92;;;5.50;99.90;;;;;;5065882;28;20031;-32
2021/12/06 02:20:36;;;;;;;40.55;25.05;;;5.50;99.90;;;;;;5063599;28;20020;-33
2021/12/06 02:23:02;;;;;;;38.00;24.02;;;5.50;99.90;;;;;;5065822;28;20095;-32
2021/12/06 02:25:28;;;;;;;47.92;25.75;;;5.50;99.90;;;;;;5064975;28;20024;-43
2021/12/06 02:27:55;;;;;;;43.33;26.05;;;5.50;99.90;;;;;;5066626;28;20162;-43
2021/12/06 02:30:21;;;;;;;40.38;24.95;;;5.50;99.90;;;;;;5066085;28;20644;-43
2021/12/06 02:32:49;;;;;;;41.22;24.58;;;5.60;99.90;;;;;;5065387;28;20032;-42
2021/12/06 02:35:19;;;;;;;43.60;24.35;;;5.60;99.90;;;;;;5066564;28;20491;-44
2021/12/06 02:37:45;;;;;;;42.03;23.00;;;5.60;99.90;;;;;;5066393;28;20062;-43
2021/12/06 02:40:22;;;;;;;39.05;23.73;;;5.60;99.90;;;;;;5066006;28;20028;-43
2021/12/06 02:42:48;;;;;;;36.65;22.80;;;5.60;99.90;;;;;;5066621;28;20064;-43
2021/12/06 02:45:17;;;;;;;40.55;23.05;;;5.60;99.90;;;;;;5066093;28;20056;-43
2021/12/06 02:47:43;;;;;;;44.60;25.48;;;5.60;99.90;;;;;;5066138;28;20828;-43
2021/12/06 02:50:11;;;;;;;38.08;23.23;;;5.60;99.90;;;;;;5065880;28;20033;-45
2021/12/06 02:52:39;;;;;;;43.47;25.48;;;5.50;99.90;;;;;;5065212;28;20020;-43
2021/12/06 02:55:22;;;;;;;41.40;24.95;;;5.50;99.90;;;;;;5066154;28;20074;-44
2021/12/06 02:57:54;;;;;;;37.35;23.85;;;5.50;99.90;;;;;;5069275;28;20025;-43
2021/12/06 03:00:20;;;;;;;43.92;26.08;;;5.50;99.90;;;;;;5069144;28;20021;-43
2021/12/06 03:02:46;;;;;;;44.22;27.00;;;5.50;99.90;;;;;;5069384;28;20029;-43
2021/12/06 03:05:11;;;;;;;44.25;25.70;;;5.60;99.90;;;;;;5070222;28;20021;-44
2021/12/06 03:07:38;;;;;;;39.53;24.60;;;5.60;99.90;;;;;;5068586;28;20022;-44
2021/12/06 03:10:08;;;;;;;40.92;24.17;;;5.60;99.90;;;;;;5068970;28;20435;-43
2021/12/06 03:12:34;;;;;;;40.50;23.67;;;5.60;99.90;;;;;;5069950;28;20028;-43
2021/12/06 03:15:01;;;;;;;41.40;24.70;;;5.60;99.90;;;;;;5068544;28;20083;-43
2021/12/06 03:17:29;;;;;;;46.00;26.15;;;5.50;99.90;;;;;;5069344;28;20021;-44
2021/12/06 03:19:58;;;;;;;51.40;28.65;;;5.50;99.90;;;;;;5069549;28;20032;-44
2021/12/06 03:22:23;;;;;;;48.08;27.85;;;5.50;99.90;;;;;;5066935;28;20043;-44
2021/12/06 03:24:49;;;;;;;50.45;28.33;;;5.50;99.90;;;;;;5069520;28;20024;-43
2021/12/06 03:27:16;;;;;;;50.00;28.73;;;5.50;99.90;;;;;;5069460;28;20031;-42
2021/12/06 03:29:42;;;;;;;44.35;25.70;;;5.50;99.90;;;;;;5068646;28;20036;-43
2021/12/06 03:32:08;;;;;;;47.50;27.17;;;5.50;99.90;;;;;;5069044;28;20095;-43
2021/12/06 03:34:34;;;;;;;46.03;26.38;;;5.50;99.90;;;;;;5068360;28;20029;-43
2021/12/06 03:37:02;;;;;;;44.95;25.90;;;5.50;99.90;;;;;;5069073;28;20032;-44
2021/12/06 03:39:54;;;;;;;48.85;26.42;;;5.50;99.90;;;;;;5069241;28;20111;-44
2021/12/06 03:42:22;;;;;;;45.53;25.33;;;5.50;99.90;;;;;;5067295;28;20094;-43
2021/12/06 03:44:48;;;;;;;45.28;26.42;;;5.50;99.90;;;;;;5068924;28;20078;-43
2021/12/06 03:47:24;;;;;;;46.67;26.02;;;5.50;99.90;;;;;;5068585;28;20032;-43
2021/12/06 03:49:50;;;;;;;44.72;25.40;;;5.50;99.90;;;;;;5068358;28;20053;-42
2021/12/06 03:52:16;;;;;;;45.33;25.77;;;5.50;99.90;;;;;;5068295;28;20047;-43
2021/12/06 03:54:46;;;;;;;48.20;25.55;;;5.50;99.90;;;;;;5069143;28;20469;-43
2021/12/06 03:57:12;;;;;;;40.83;24.17;;;5.50;99.90;;;;;;5068006;28;20030;-42
2021/12/06 03:59:38;;;;;;;45.55;24.85;;;5.50;99.90;;;;;;5068679;28;20013;-43
2021/12/06 04:02:04;;;;;;;41.75;24.52;;;5.50;99.90;;;;;;5068461;28;20501;-43
2021/12/06 04:04:29;;;;;;;44.03;25.13;;;5.50;99.90;;;;;;5068320;28;20160;-43
2021/12/06 04:06:55;;;;;;;43.47;24.60;;;5.50;99.90;;;;;;5067479;28;20134;-43
2021/12/06 04:09:21;;;;;;;40.17;24.45;;;5.50;99.90;;;;;;5068351;28;20024;-43
2021/12/06 04:11:47;;;;;;;45.13;26.00;;;5.50;99.90;;;;;;5067182;28;20090;-43
2021/12/06 04:14:13;;;;;;;46.88;25.52;;;5.50;99.90;;;;;;5067985;28;20048;-43
2021/12/06 04:16:40;;;;;;;41.28;24.30;;;5.50;99.90;;;;;;5068040;28;20032;-44
2021/12/06 04:19:07;;;;;;;45.85;25.55;;;5.40;99.90;;;;;;5067506;28;20020;-42
2021/12/06 04:21:33;;;;;;;51.88;27.17;;;5.40;99.90;;;;;;5067459;28;20086;-43
2021/12/06 04:23:59;;;;;;;50.20;27.15;;;5.40;99.90;;;;;;5067294;28;20036;-43
2021/12/06 04:26:25;;;;;;;48.25;26.23;;;5.40;99.90;;;;;;5068372;28;20093;-44
2021/12/06 04:28:59;;;;;;;52.10;28.17;;;5.40;99.90;;;;;;5067841;28;20075;-43
2021/12/06 04:31:29;;;;;;;56.05;28.73;;;5.40;99.90;;;;;;5067339;28;20246;-43
2021/12/06 04:33:54;;;;;;;49.05;27.58;;;5.40;99.90;;;;;;5067340;28;20032;-43
2021/12/06 04:36:20;;;;;;;50.80;28.35;;;5.40;99.90;;;;;;5067871;28;20024;-43
2021/12/06 04:38:46;;;;;;;50.67;26.40;;;5.40;99.90;;;;;;5066781;28;20050;-43
2021/12/06 04:41:12;;;;;;;47.90;26.67;;;5.40;99.90;;;;;;5067756;28;20060;-43
2021/12/06 04:43:37;;;;;;;45.40;24.90;;;5.30;99.90;;;;;;5067434;28;20052;-43
2021/12/06 04:46:03;;;;;;;48.13;26.90;;;5.40;99.90;;;;;;5066621;28;20028;-42
2021/12/06 04:48:28;;;;;;;46.25;26.40;;;5.40;99.90;;;;;;5067224;28;20476;-43
2021/12/06 04:50:54;;;;;;;48.28;28.10;;;5.30;99.90;;;;;;5067443;28;20025;-42
2021/12/06 04:53:26;;;;;;;47.92;26.33;;;5.30;99.90;;;;;;5066936;28;20055;-43
2021/12/06 04:56:09;;;;;;;47.95;25.33;;;5.30;99.90;;;;;;5067284;28;20032;-43
2021/12/06 04:58:41;;;;;;;49.38;27.20;;;5.30;99.90;;;;;;5066892;28;20063;-43
2021/12/06 05:01:13;;;;;;;49.33;25.60;;;5.30;99.90;;;;;;5066724;28;20024;-44
2021/12/06 05:03:40;;;;;;;47.92;26.85;;;5.30;99.90;;;;;;5067058;28;20032;-43
2021/12/06 05:06:25;;;;;;;48.85;26.70;;;5.30;99.90;;;;;;5066308;28;20034;-43
2021/12/06 05:08:56;;;;;;;50.47;25.77;;;5.20;99.90;;;;;;5066631;28;20028;-43
2021/12/06 05:11:24;;;;;;;45.90;24.20;;;5.20;99.90;;;;;;5067287;28;20063;-42
2021/12/06 05:13:52;;;;;;;45.35;25.40;;;5.10;99.90;;;;;;5066123;28;20024;-43
2021/12/06 05:16:18;;;;;;;42.42;23.48;;;5.10;99.90;;;;;;5067220;28;20016;-43
2021/12/06 05:18:45;;;;;;;49.53;26.15;;;5.00;99.90;;;;;;5067142;28;20033;-43
2021/12/06 05:21:11;;;;;;;50.05;26.10;;;5.00;99.90;;;;;;5066015;28;20613;-42
2021/12/06 05:23:37;;;;;;;48.20;27.13;;;4.90;99.90;;;;;;5066513;28;20074;-43
2021/12/06 05:26:03;;;;;;;51.67;26.08;;;4.80;99.90;;;;;;5067028;28;20048;-42
2021/12/06 05:28:32;;;;;;;52.20;27.73;;;4.80;99.90;;;;;;5066207;28;20692;-43
2021/12/06 05:30:58;;;;;;;49.08;28.23;;;4.80;99.90;;;;;;5066387;28;20043;-43
2021/12/06 05:33:31;;;;;;;58.30;30.25;;;4.70;99.90;;;;;;5067015;28;20107;-43
2021/12/06 05:36:03;;;;;;;51.75;28.42;;;4.70;99.90;;;;;;5065613;28;20476;-43
2021/12/06 05:38:29;;;;;;;46.13;25.73;;;4.60;99.90;;;;;;5066879;28;20036;-43
2021/12/06 05:40:58;;;;;;;42.60;25.02;;;4.60;99.90;;;;;;5067188;28;20078;-43
2021/12/06 05:43:25;;;;;;;46.97;25.77;;;4.50;99.90;;;;;;5066256;28;20025;-43
2021/12/06 05:45:51;;;;;;;46.50;26.42;;;4.50;99.90;;;;;;5066586;28;20028;-43
2021/12/06 05:48:17;;;;;;;53.25;27.73;;;4.40;99.90;;;;;;5066111;28;20023;-44
2021/12/06 05:50:46;;;;;;;50.08;27.23;;;4.40;99.90;;;;;;5066848;28;20111;-43
2021/12/06 05:53:12;;;;;;;53.33;27.20;;;4.40;99.90;;;;;;5066870;28;20823;-43
2021/12/06 05:55:37;;;;;;;48.85;26.02;;;4.30;99.90;;;;;;5065783;28;20020;-43
2021/12/06 05:58:05;;;;;;;55.60;27.35;;;4.30;99.90;;;;;;5067110;28;20075;-43
2021/12/06 06:00:32;;;;;;;49.30;27.30;;;4.30;99.90;;;;;;5066157;28;20021;-43
2021/12/06 06:03:00;;;;;;;50.35;28.00;;;4.30;99.90;;;;;;5066184;28;20016;-43
2021/12/06 06:05:25;;;;;;;52.95;27.95;;;4.30;99.90;;;;;;5066553;28;20112;-43
2021/12/06 06:07:51;;;;;;;49.97;26.52;;;4.30;99.90;;;;;;5066005;28;20099;-44
2021/12/06 06:10:17;;;;;;;56.35;27.45;;;4.30;99.90;;;;;;5066421;28;20067;-44
2021/12/06 06:12:44;;;;;;;52.55;28.70;;;4.40;99.90;;;;;;5066069;28;20027;-45
2021/12/06 06:15:10;;;;;;;50.72;26.08;;;4.50;99.90;;;;;;5065789;28;20040;-44
2021/12/06 06:17:42;;;;;;;52.45;27.83;;;4.50;99.90;;;;;;5065311;28;20039;-43
2021/12/06 06:20:16;;;;;;;53.03;28.30;;;4.60;99.90;;;;;;5066851;28;20032;-43
2021/12/06 06:22:42;;;;;;;58.47;30.45;;;4.60;99.90;;;;;;5066060;28;20076;-43
2021/12/06 06:25:08;;;;;;;52.58;27.10;;;4.70;99.90;;;;;;5065626;28;20064;-43
2021/12/06 06:27:34;;;;;;;56.13;29.75;;;4.70;99.90;;;;;;5066128;28;20048;-44
2021/12/06 06:30:00;;;;;;;52.35;29.17;;;4.80;99.90;;;;;;5066347;28;20106;-43
2021/12/06 06:32:25;;;;;;;52.03;27.23;;;4.80;99.90;;;;;;5068064;28;20028;-43
2021/12/06 06:34:51;;;;;;;51.75;27.00;;;4.70;99.90;;;;;;5066645;28;20150;-43
2021/12/06 06:37:17;;;;;;;50.58;27.45;;;4.80;99.90;;;;;;5067771;28;20031;-43
2021/12/06 06:39:42;;;;;;;53.78;29.85;;;4.70;99.90;;;;;;5066828;28;20043;-43
2021/12/06 06:42:08;;;;;;;57.80;28.92;;;4.70;99.90;;;;;;5069580;28;20024;-43
2021/12/06 06:44:34;;;;;;;56.25;29.65;;;4.70;99.90;;;;;;5068135;28;20020;-44
2021/12/06 06:46:59;;;;;;;56.22;29.20;;;4.70;99.90;;;;;;5069368;28;20056;-43
2021/12/06 06:49:25;;;;;;;49.22;27.90;;;4.80;99.90;;;;;;5065171;28;20036;-43
2021/12/06 06:51:51;;;;;;;54.33;27.25;;;4.70;99.90;;;;;;5068748;28;20032;-44
2021/12/06 06:54:16;;;;;;;57.35;29.92;;;4.70;99.90;;;;;;5068690;28;20013;-43
2021/12/06 06:56:42;;;;;;;55.33;28.55;;;4.70;99.90;;;;;;5069115;28;20059;-43
2021/12/06 06:59:08;;;;;;;50.38;27.63;;;4.70;99.90;;;;;;5067265;28;20056;-43
2021/12/06 07:01:34;;;;;;;54.15;28.35;;;4.70;99.90;;;;;;5068447;28;20058;-44
2021/12/06 07:04:00;;;;;;;53.03;28.58;;;4.80;99.90;;;;;;5068515;28;20040;-43
2021/12/06 07:06:29;;;;;;;52.20;29.95;;;4.80;99.90;;;;;;5067944;28;20032;-42
2021/12/06 07:08:56;;;;;;;46.58;27.23;;;4.80;99.90;;;;;;5068672;28;20029;-43
2021/12/06 07:11:24;;;;;;;48.05;25.95;;;4.80;99.90;;;;;;5069061;28;20062;-44
2021/12/06 07:13:49;;;;;;;47.78;26.60;;;4.90;99.90;;;;;;5067857;28;20013;-43
2021/12/06 07:16:16;;;;;;;51.38;27.40;;;4.90;99.90;;;;;;5069790;28;20036;-43
2021/12/06 07:18:42;;;;;;;49.30;27.77;;;4.90;99.90;;;;;;5069686;28;20119;-43
2021/12/06 07:21:09;;;;;;;51.05;27.42;;;4.90;99.90;;;;;;5068376;28;20132;-42
2021/12/06 07:23:38;;;;;;;43.30;25.75;;;4.90;99.90;;;;;;5068673;28;20044;-43
2021/12/06 07:26:09;;;;;;;43.60;24.50;;;4.90;99.90;;;;;;5056342;28;20542;-44
2021/12/06 07:28:36;;;;;;;41.75;23.98;;;4.90;99.90;;;;;;5051951;28;20035;-43
2021/12/06 07:31:04;;;;;;;43.50;23.63;;;5.00;99.90;;;;;;5069373;28;20056;-42
2021/12/06 07:33:30;;;;;;;42.92;23.50;;;5.00;99.90;;;;;;5069324;28;20040;-42
2021/12/06 07:35:55;;;;;;;39.35;23.08;;;5.00;99.90;;;;;;5068242;28;20016;-43
2021/12/06 07:38:21;;;;;;;38.00;23.30;;;5.00;99.90;;;;;;5069267;28;20032;-43
2021/12/06 07:40:50;;;;;;;47.63;25.25;;;5.00;99.90;;;;;;5068129;28;20023;-42
2021/12/06 07:43:17;;;;;;;40.45;24.73;;;5.10;99.90;;;;;;5069323;28;20024;-43
2021/12/06 07:45:42;;;;;;;43.00;24.92;;;5.10;99.90;;;;;;5068789;28;20465;-42
2021/12/06 07:48:08;;;;;;;41.47;23.35;;;5.10;99.90;;;;;;5067819;28;20028;-43
2021/12/06 07:50:34;;;;;;;39.30;24.08;;;5.00;99.90;;;;;;5068914;28;20046;-43
2021/12/06 07:52:59;;;;;;;41.45;24.95;;;5.10;99.90;;;;;;5067797;28;20141;-43
2021/12/06 07:55:31;;;;;;;36.97;23.73;;;5.10;99.90;;;;;;5067360;28;20025;-43
2021/12/06 07:57:58;;;;;;;43.33;24.88;;;5.10;99.90;;;;;;5050283;28;20029;-43
2021/12/06 08:00:27;;;;;;;44.53;26.00;;;5.00;99.90;;;;;;5056796;28;20028;-43
2021/12/06 08:02:53;;;;;;;39.63;23.77;;;5.00;99.90;;;;;;5066760;28;20301;-43
2021/12/06 08:05:31;;;;;;;39.50;23.00;;;5.00;99.90;;;;;;5058664;28;20529;-43
2021/12/06 08:07:58;;;;;;;42.95;25.70;;;5.00;99.90;;;;;;5068225;28;20025;-46
2021/12/06 08:10:24;;;;;;;44.28;25.35;;;5.00;99.90;;;;;;5067025;28;20035;-43
2021/12/06 08:12:50;;;;;;;39.65;22.17;;;5.00;99.90;;;;;;5067949;28;20032;-42
2021/12/06 08:15:16;;;;;;;41.72;23.02;;;5.00;99.90;;;;;;5063309;28;20020;-43
2021/12/06 08:17:42;;;;;;;37.75;23.10;;;5.00;99.90;;;;;;5067629;28;20020;-42
2021/12/06 08:20:09;;;;;;;35.78;23.17;;;5.00;99.90;;;;;;5067193;28;20059;-43
2021/12/06 08:22:35;;;;;;;37.83;23.20;;;5.00;99.90;;;;;;5067228;28;20164;-43
2021/12/06 08:25:01;;;;;;;40.72;24.65;;;5.00;99.90;;;;;;5066902;28;20568;-43
2021/12/06 08:27:27;;;;;;;36.25;21.65;;;5.00;99.90;;;;;;5067217;28;20146;-43
2021/12/06 08:29:53;;;;;;;34.47;21.05;;;5.00;99.90;;;;;;5066568;28;20115;-42
2021/12/06 08:32:18;;;;;;;34.47;22.63;;;5.00;99.90;;;;;;5066743;28;20036;-43
2021/12/06 08:34:44;;;;;;;31.80;22.42;;;5.00;99.90;;;;;;5067402;28;20115;-43
2021/12/06 08:37:11;;;;;;;34.83;22.58;;;5.00;99.90;;;;;;5066484;28;20067;-43
2021/12/06 08:39:37;;;;;;;36.72;23.98;;;5.00;99.90;;;;;;5066789;28;20039;-44
2021/12/06 08:42:04;;;;;;;36.35;24.17;;;5.00;99.90;;;;;;5067177;28;20031;-43
2021/12/06 08:44:29;;;;;;;32.65;22.50;;;5.00;99.90;;;;;;5066287;28;20028;-43
2021/12/06 08:46:55;;;;;;;32.08;21.27;;;5.00;99.90;;;;;;5067010;28;20020;-42
2021/12/06 08:49:21;;;;;;;30.50;20.35;;;5.00;99.90;;;;;;5067764;28;20480;-42
2021/12/06 08:51:50;;;;;;;31.45;20.75;;;5.00;99.90;;;;;;5065349;28;20024;-43
2021/12/06 08:54:18;;;;;;;35.40;22.23;;;5.00;99.90;;;;;;5066794;28;20035;-44
2021/12/06 08:56:45;;;;;;;35.78;22.45;;;5.00;99.90;;;;;;5066615;28;20607;-44
2021/12/06 08:59:11;;;;;;;30.30;19.98;;;5.10;99.90;;;;;;5066804;28;20131;-44
2021/12/06 09:01:38;;;;;;;34.22;21.27;;;5.10;99.90;;;;;;5066395;28;20028;-44
2021/12/06 09:04:08;;;;;;;33.72;21.52;;;5.00;99.90;;;;;;5066800;28;20032;-44
2021/12/06 09:06:35;;;;;;;35.95;20.65;;;5.00;99.90;;;;;;5066004;28;20545;-44
2021/12/06 09:09:05;;;;;;;33.85;20.50;;;5.10;99.90;;;;;;5066153;28;20030;-42
2021/12/06 09:11:31;;;;;;;31.52;20.58;;;5.10;99.90;;;;;;5064440;28;20044;-43
2021/12/06 09:13:56;;;;;;;31.75;20.58;;;5.10;99.90;;;;;;5065980;28;20408;-43
2021/12/06 09:16:22;;;;;;;34.17;22.05;;;5.10;99.90;;;;;;5066504;28;20016;-43
2021/12/06 09:18:48;;;;;;;30.63;20.33;;;5.10;99.90;;;;;;5066142;28;20020;-42
2021/12/06 09:21:17;;;;;;;35.42;22.27;;;5.10;99.90;;;;;;5066282;28;20472;-43
2021/12/06 09:23:44;;;;;;;34.63;22.45;;;5.10;99.90;;;;;;5066095;28;20041;-43
2021/12/06 09:26:10;;;;;;;31.95;22.45;;;5.10;99.90;;;;;;5066406;28;20074;-44
2021/12/06 09:28:36;;;;;;;33.03;21.95;;;5.10;99.90;;;;;;5065366;28;20028;-43
2021/12/06 09:31:04;;;;;;;30.75;20.52;;;5.10;99.90;;;;;;5065489;28;20116;-43
2021/12/06 09:33:31;;;;;;;33.03;20.60;;;5.10;99.90;;;;;;5065882;28;20024;-43
2021/12/06 09:35:59;;;;;;;32.13;20.55;;;5.10;99.90;;;;;;5066038;28;20072;-43
2021/12/06 09:38:28;;;;;;;31.02;20.33;;;5.10;99.90;;;;;;5066035;28;20028;-43
2021/12/06 09:40:57;;;;;;;31.00;20.67;;;5.20;99.90;;;;;;5065474;28;20020;-44
2021/12/06 09:43:23;;;;;;;27.83;18.75;;;5.10;99.90;;;;;;5066031;28;20536;-43
2021/12/06 09:45:49;;;;;;;31.73;20.38;;;5.20;99.90;;;;;;5066153;28;20507;-43
2021/12/06 09:48:16;;;;;;;30.98;21.02;;;5.20;99.90;;;;;;5065906;28;20035;-43
2021/12/06 09:50:49;;;;;;;29.95;19.88;;;5.20;99.90;;;;;;5066307;28;20040;-43
2021/12/06 09:53:19;;;;;;;29.33;20.08;;;5.20;99.90;;;;;;5065722;28;20391;-43
2021/12/06 09:55:48;;;;;;;29.23;19.80;;;5.20;99.90;;;;;;5065640;28;20040;-43
2021/12/06 09:58:14;;;;;;;28.88;19.52;;;5.20;99.90;;;;;;5070188;28;20031;-43
2021/12/06 10:00:44;;;;;;;29.92;19.60;;;5.20;99.90;;;;;;5065802;28;20032;-43
2021/12/06 10:03:11;;;;;;;32.83;20.60;;;5.20;99.90;;;;;;5065336;28;20024;-44
2021/12/06 10:05:37;;;;;;;27.58;18.85;;;5.20;99.90;;;;;;5066450;28;20027;-44
2021/12/06 10:08:03;;;;;;;30.40;19.25;;;5.20;99.90;;;;;;5070240;28;20054;-43
2021/12/06 10:10:30;;;;;;;30.13;20.02;;;5.20;99.90;;;;;;5069454;28;20040;-43
2021/12/06 10:12:56;;;;;;;32.63;21.08;;;5.20;99.90;;;;;;5069603;28;20111;-43
2021/12/06 10:15:25;;;;;;;33.70;21.48;;;5.20;99.90;;;;;;5070064;28;20051;-44
2021/12/06 10:17:56;;;;;;;37.50;22.77;;;5.20;99.90;;;;;;5070202;28;20035;-44
2021/12/06 10:20:23;;;;;;;39.60;23.77;;;5.20;99.90;;;;;;5069953;28;20012;-44
2021/12/06 10:22:51;;;;;;;30.52;20.95;;;5.20;99.90;;;;;;5068696;28;20071;-44
2021/12/06 10:25:17;;;;;;;35.45;23.02;;;5.20;99.90;;;;;;5070364;28;20028;-44
2021/12/06 10:27:58;;;;;;;36.10;24.77;;;5.20;99.90;;;;;;5069225;28;20029;-44
2021/12/06 10:30:24;;;;;;;32.67;21.63;;;5.20;99.90;;;;;;5068831;28;20086;-44
2021/12/06 10:33:00;;;;;;;31.00;21.17;;;5.20;99.90;;;;;;5069271;28;20774;-43
2021/12/06 10:35:25;;;;;;;42.85;26.23;;;5.20;99.90;;;;;;5069473;28;20024;-43
2021/12/06 10:37:57;;;;;;;42.38;27.88;;;5.20;99.90;;;;;;5068914;28;20052;-43
2021/12/06 10:40:33;;;;;;;38.33;26.58;;;5.20;99.90;;;;;;5069330;28;20024;-43
2021/12/06 10:43:02;;;;;;;38.22;25.33;;;5.20;99.90;;;;;;5069468;28;20028;-44
2021/12/06 10:45:31;;;;;;;34.83;24.45;;;5.20;99.90;;;;;;5068460;28;20005;-43
2021/12/06 10:48:19;;;;;;;33.63;23.00;;;5.30;99.90;;;;;;5069439;28;20040;-44
2021/12/06 10:51:06;;;;;;;35.55;24.10;;;5.30;99.90;;;;;;5068335;28;20036;-44
2021/12/06 10:54:07;;;;;;;33.08;22.85;;;5.30;99.90;;;;;;5068565;28;20495;-44
2021/12/06 10:56:42;;;;;;;33.80;23.50;;;5.30;99.90;;;;;;5068486;28;20044;-44
2021/12/06 10:59:19;;;;;;;36.10;24.38;;;5.30;99.90;;;;;;5068734;28;20041;-43
2021/12/06 11:01:47;;;;;;;36.15;23.95;;;5.30;99.90;;;;;;5068946;28;20047;-43
2021/12/06 11:04:16;;;;;;;38.22;23.90;;;5.30;99.90;;;;;;5068895;28;20644;-43
2021/12/06 11:06:45;;;;;;;37.05;24.33;;;5.40;99.90;;;;;;5068090;28;20035;-43
2021/12/06 11:09:23;;;;;;;34.78;23.50;;;5.40;99.90;;;;;;5069657;28;20081;-43
2021/12/06 11:11:52;;;;;;;35.15;22.50;;;5.40;99.90;;;;;;5068001;28;20032;-43
2021/12/06 11:14:31;;;;;;;35.30;24.13;;;5.40;99.90;;;;;;5068989;28;20028;-44
2021/12/06 11:17:06;;;;;;;40.75;25.40;;;5.50;99.90;;;;;;5067070;28;20407;-43
2021/12/06 11:19:32;;;;;;;42.13;26.25;;;5.40;99.90;;;;;;5068251;28;20127;-43
2021/12/06 11:22:00;;;;;;;39.50;23.65;;;5.40;99.90;;;;;;5068120;28;20131;-43
2021/12/06 11:24:39;;;;;;;41.58;25.00;;;5.30;99.90;;;;;;5068030;28;20472;-43
2021/12/06 11:27:08;;;;;;;40.90;23.83;;;5.30;99.90;;;;;;5067747;28;20034;-42
2021/12/06 11:29:41;;;;;;;41.75;23.67;;;5.30;99.90;;;;;;5067944;28;20127;-43
2021/12/06 11:32:14;;;;;;;41.35;24.13;;;5.30;99.90;;;;;;5068622;28;20044;-43
2021/12/06 11:34:44;;;;;;;39.65;21.65;;;5.30;99.90;;;;;;5067587;28;20031;-44
2021/12/06 11:37:19;;;;;;;47.67;25.27;;;5.40;99.90;;;;;;5067993;28;20296;-42
2021/12/06 11:39:48;;;;;;;47.40;25.88;;;5.30;99.90;;;;;;5058759;28;20024;-44
2021/12/06 11:42:15;;;;;;;39.03;22.48;;;5.30;99.90;;;;;;5068205;28;20035;-43
2021/12/06 11:44:42;;;;;;;43.80;22.27;;;5.30;99.90;;;;;;5068279;28;20111;-42
2021/12/06 11:47:12;;;;;;;38.15;22.33;;;5.30;99.90;;;;;;5067460;28;20043;-42
2021/12/06 11:49:42;;;;;;;40.78;21.67;;;5.40;99.90;;;;;;5068134;28;20035;-43
2021/12/06 11:52:11;;;;;;;40.95;22.10;;;5.30;99.90;;;;;;5067941;28;20070;-43
2021/12/06 11:55:02;;;;;;;39.50;22.10;;;5.30;99.90;;;;;;5067026;28;20126;-43
2021/12/06 11:57:41;;;;;;;42.28;22.83;;;5.30;99.90;;;;;;5065769;28;20056;-43
2021/12/06 12:00:12;;;;;;;45.30;24.40;;;5.30;99.90;;;;;;5067790;28;20085;-43
2021/12/06 12:02:43;;;;;;;48.80;24.67;;;5.20;99.90;;;;;;5066973;28;20461;-43
2021/12/06 12:05:13;;;;;;;39.97;22.90;;;5.20;99.90;;;;;;5059769;28;20039;-43
2021/12/06 12:08:07;;;;;;;45.55;23.83;;;5.30;99.90;;;;;;5067537;28;20035;-43
2021/12/06 12:10:46;;;;;;;40.78;22.63;;;5.20;99.90;;;;;;5067647;28;20067;-43
2021/12/06 12:13:26;;;;;;;40.00;22.02;;;5.20;99.90;;;;;;5068332;28;20021;-44
2021/12/06 12:15:54;;;;;;;40.60;22.15;;;5.20;99.90;;;;;;5056266;28;20024;-43
2021/12/06 12:18:20;;;;;;;37.92;20.42;;;5.20;99.90;;;;;;5067188;28;20032;-43
2021/12/06 12:20:47;;;;;;;36.53;20.42;;;5.20;99.90;;;;;;5067356;28;20090;-43
2021/12/06 12:23:13;;;;;;;35.30;19.65;;;5.20;99.90;;;;;;5067239;28;20111;-43
2021/12/06 12:25:48;;;;;;;33.72;20.08;;;5.20;99.90;;;;;;5067798;28;20081;-43
2021/12/06 12:30:44;;;;;;;35.70;21.20;;;5.10;99.90;;;;;;5064573;28;20049;-43
2021/12/06 12:33:11;;;;;;;33.58;19.45;;;5.00;99.90;;;;;;5067400;28;20647;-43
2021/12/06 12:35:41;;;;;;;32.13;20.17;;;5.00;99.90;;;;;;5067440;28;20059;-43
2021/12/06 12:38:10;;;;;;;31.60;19.40;;;5.00;99.90;;;;;;5066492;28;20074;-43
2021/12/06 12:40:41;;;;;;;29.25;19.55;;;5.00;99.90;;;;;;5066737;28;20480;-43
2021/12/06 12:43:12;;;;;;;29.35;18.95;;;5.00;99.90;;;;;;5066469;28;20094;-43
2021/12/06 12:45:49;;;;;;;28.90;18.75;;;5.10;99.90;;;;;;5067470;28;20020;-44
2021/12/06 12:48:22;;;;;;;29.48;17.75;;;5.00;99.90;;;;;;5046800;28;20056;-43
2021/12/06 12:51:07;;;;;;;33.42;19.60;;;5.10;99.90;;;;;;5061505;28;20032;-43
2021/12/06 12:54:04;;;;;;;33.70;20.80;;;5.10;99.90;;;;;;5047623;28;20032;-44
2021/12/06 12:56:34;;;;;;;34.67;21.20;;;5.10;99.90;;;;;;5066542;28;20037;-43
2021/12/06 12:59:17;;;;;;;32.70;19.88;;;5.10;99.90;;;;;;5065221;28;20500;-43